sensor_id;sensor_type;location;lat;lon;timestamp;P1;P2;P0
50589;PMS7003;36547;50.514;30.840;2023-09-19T00:00:16;30.10;27.50;18.40
50589;PMS7003;36547;50.514;30.840;2023-09-19T00:01:19;28.30;27.60;19.90
50589;PMS7003;36547;50.514;30.840;2023-09-19T00:02:21;33.00;27.80;18.70
50589;PMS7003;36547;50.514;30.840;2023-09-19T00:03:24;27.90;27.00;19.70
50589;PMS7003;36547;50.514;30.840;2023-09-19T00:04:26;27.60;25.80;18.90
50589;PMS7003;36547;50.514;30.840;2023-09-19T00:05:29;27.90;26.70;18.40
50589;PMS7003;36547;50.514;30.840;2023-09-19T00:06:34;25.20;22.50;17.10
50589;PMS7003;36547;50.514;30.840;2023-09-19T00:07:40;28.90;24.60;17.90
50589;PMS7003;36547;50.514;30.840;2023-09-19T00:08:43;28.20;25.70;17.80
50589;PMS7003;36547;50.514;30.840;2023-09-19T00:09:45;25.80;23.40;18.40
50589;PMS7003;36547;50.514;30.840;2023-09-19T00:10:47;27.80;26.10;19.10
50589;PMS7003;36547;50.514;30.840;2023-09-19T00:11:50;30.20;27.10;19.10
50589;PMS7003;36547;50.514;30.840;2023-09-19T00:12:56;26.30;24.80;17.90
50589;PMS7003;36547;50.514;30.840;2023-09-19T00:14:06;34.10;31.80;21.00
50589;PMS7003;36547;50.514;30.840;2023-09-19T00:15:09;25.70;24.30;18.20
50589;PMS7003;36547;50.514;30.840;2023-09-19T00:16:12;25.90;24.00;15.70
50589;PMS7003;36547;50.514;30.840;2023-09-19T00:17:15;20.70;20.00;12.40
50589;PMS7003;36547;50.514;30.840;2023-09-19T00:18:18;30.10;26.90;18.00
50589;PMS7003;36547;50.514;30.840;2023-09-19T00:19:21;14.10;11.80;4.90
50589;PMS7003;36547;50.514;30.840;2023-09-19T00:20:24;28.10;26.40;19.20
50589;PMS7003;36547;50.514;30.840;2023-09-19T00:21:26;26.30;24.50;16.50
50589;PMS7003;36547;50.514;30.840;2023-09-19T00:22:29;24.50;23.50;18.90
50589;PMS7003;36547;50.514;30.840;2023-09-19T00:23:31;25.20;23.30;16.50
50589;PMS7003;36547;50.514;30.840;2023-09-19T00:24:33;26.90;26.60;18.80
50589;PMS7003;36547;50.514;30.840;2023-09-19T00:25:36;26.80;25.90;18.70
50589;PMS7003;36547;50.514;30.840;2023-09-19T00:26:38;28.10;24.60;17.70
50589;PMS7003;36547;50.514;30.840;2023-09-19T00:27:41;27.20;27.10;18.80
50589;PMS7003;36547;50.514;30.840;2023-09-19T00:28:43;29.80;28.50;19.70
50589;PMS7003;36547;50.514;30.840;2023-09-19T00:29:46;29.10;25.30;17.50
50589;PMS7003;36547;50.514;30.840;2023-09-19T00:30:50;27.80;26.30;19.40
50589;PMS7003;36547;50.514;30.840;2023-09-19T00:31:53;29.60;28.00;19.30
50589;PMS7003;36547;50.514;30.840;2023-09-19T00:32:56;26.60;23.70;16.20
50589;PMS7003;36547;50.514;30.840;2023-09-19T00:33:58;26.20;25.30;17.70
50589;PMS7003;36547;50.514;30.840;2023-09-19T00:35:00;29.80;26.30;18.40
50589;PMS7003;36547;50.514;30.840;2023-09-19T00:36:03;19.30;18.30;11.60
50589;PMS7003;36547;50.514;30.840;2023-09-19T00:37:06;26.40;24.70;18.60
50589;PMS7003;36547;50.514;30.840;2023-09-19T00:38:09;25.10;25.10;18.10
50589;PMS7003;36547;50.514;30.840;2023-09-19T00:39:11;26.50;25.90;17.30
50589;PMS7003;36547;50.514;30.840;2023-09-19T00:40:14;26.50;25.70;18.60
50589;PMS7003;36547;50.514;30.840;2023-09-19T00:41:16;24.10;23.50;18.20
50589;PMS7003;36547;50.514;30.840;2023-09-19T00:43:29;27.60;25.70;18.30
50589;PMS7003;36547;50.514;30.840;2023-09-19T00:44:32;25.73;23.73;17.64
50589;PMS7003;36547;50.514;30.840;2023-09-19T00:45:35;28.20;24.90;18.40
50589;PMS7003;36547;50.514;30.840;2023-09-19T00:46:39;26.20;24.80;17.50
50589;PMS7003;36547;50.514;30.840;2023-09-19T00:47:46;31.40;28.00;19.00
50589;PMS7003;36547;50.514;30.840;2023-09-19T00:48:52;23.40;22.00;16.40
50589;PMS7003;36547;50.514;30.840;2023-09-19T00:49:55;25.73;25.73;17.73
50589;PMS7003;36547;50.514;30.840;2023-09-19T00:50:59;22.00;21.50;13.20
50589;PMS7003;36547;50.514;30.840;2023-09-19T00:52:05;24.40;24.40;16.90
50589;PMS7003;36547;50.514;30.840;2023-09-19T00:53:08;28.91;24.45;17.73
50589;PMS7003;36547;50.514;30.840;2023-09-19T00:54:12;26.30;26.30;17.90
50589;PMS7003;36547;50.514;30.840;2023-09-19T00:55:16;24.00;23.50;18.20
50589;PMS7003;36547;50.514;30.840;2023-09-19T00:56:19;30.20;26.20;18.20
50589;PMS7003;36547;50.514;30.840;2023-09-19T00:57:22;27.00;24.30;18.00
50589;PMS7003;36547;50.514;30.840;2023-09-19T00:58:26;25.30;23.80;16.80
50589;PMS7003;36547;50.514;30.840;2023-09-19T00:59:28;27.10;24.00;18.70
50589;PMS7003;36547;50.514;30.840;2023-09-19T01:00:33;26.30;24.30;17.50
50589;PMS7003;36547;50.514;30.840;2023-09-19T01:01:35;25.90;24.90;18.00
50589;PMS7003;36547;50.514;30.840;2023-09-19T01:02:38;24.82;24.36;17.00
50589;PMS7003;36547;50.514;30.840;2023-09-19T01:03:41;29.30;26.90;17.60
50589;PMS7003;36547;50.514;30.840;2023-09-19T01:04:44;24.50;23.20;18.90
50589;PMS7003;36547;50.514;30.840;2023-09-19T01:05:47;27.20;26.50;17.90
50589;PMS7003;36547;50.514;30.840;2023-09-19T01:06:50;24.30;22.20;16.90
50589;PMS7003;36547;50.514;30.840;2023-09-19T01:07:53;26.82;25.45;18.73
50589;PMS7003;36547;50.514;30.840;2023-09-19T01:08:56;26.70;24.80;18.10
50589;PMS7003;36547;50.514;30.840;2023-09-19T01:09:59;27.60;26.60;18.30
50589;PMS7003;36547;50.514;30.840;2023-09-19T01:12:22;25.30;23.00;17.00
50589;PMS7003;36547;50.514;30.840;2023-09-19T01:13:46;24.90;22.20;15.80
50589;PMS7003;36547;50.514;30.840;2023-09-19T01:15:03;27.10;26.00;18.30
50589;PMS7003;36547;50.514;30.840;2023-09-19T01:16:10;27.80;25.00;19.10
50589;PMS7003;36547;50.514;30.840;2023-09-19T01:17:20;26.80;25.10;17.60
50589;PMS7003;36547;50.514;30.840;2023-09-19T01:18:35;24.40;22.00;16.80
50589;PMS7003;36547;50.514;30.840;2023-09-19T01:21:15;28.70;27.10;19.60
50589;PMS7003;36547;50.514;30.840;2023-09-19T01:22:27;23.70;23.40;16.90
50589;PMS7003;36547;50.514;30.840;2023-09-19T01:23:39;28.10;24.60;17.90
50589;PMS7003;36547;50.514;30.840;2023-09-19T01:25:20;27.20;23.40;17.60
50589;PMS7003;36547;50.514;30.840;2023-09-19T01:26:44;24.70;22.70;17.50
50589;PMS7003;36547;50.514;30.840;2023-09-19T01:29:39;26.20;24.50;16.90
50589;PMS7003;36547;50.514;30.840;2023-09-19T01:30:47;27.70;24.20;18.50
50589;PMS7003;36547;50.514;30.840;2023-09-19T01:31:54;23.60;22.10;16.30
50589;PMS7003;36547;50.514;30.840;2023-09-19T01:32:58;24.20;23.40;16.70
50589;PMS7003;36547;50.514;30.840;2023-09-19T01:34:02;26.30;24.30;17.30
50589;PMS7003;36547;50.514;30.840;2023-09-19T01:35:05;25.80;23.90;18.60
50589;PMS7003;36547;50.514;30.840;2023-09-19T01:36:09;25.20;25.20;18.10
50589;PMS7003;36547;50.514;30.840;2023-09-19T01:37:11;25.70;24.20;18.20
50589;PMS7003;36547;50.514;30.840;2023-09-19T01:38:14;23.10;22.50;16.30
50589;PMS7003;36547;50.514;30.840;2023-09-19T01:39:17;25.20;23.80;17.30
50589;PMS7003;36547;50.514;30.840;2023-09-19T01:40:21;23.60;22.90;17.20
50589;PMS7003;36547;50.514;30.840;2023-09-19T01:42:44;31.00;26.60;18.60
50589;PMS7003;36547;50.514;30.840;2023-09-19T01:44:02;23.60;21.30;16.80
50589;PMS7003;36547;50.514;30.840;2023-09-19T01:45:11;24.70;23.30;17.40
50589;PMS7003;36547;50.514;30.840;2023-09-19T01:46:21;23.50;22.80;17.20
50589;PMS7003;36547;50.514;30.840;2023-09-19T01:47:33;26.80;21.80;16.20
50589;PMS7003;36547;50.514;30.840;2023-09-19T01:48:49;26.70;25.00;16.70
50589;PMS7003;36547;50.514;30.840;2023-09-19T01:51:21;23.80;23.20;16.10
50589;PMS7003;36547;50.514;30.840;2023-09-19T01:52:26;22.90;21.70;16.30
50589;PMS7003;36547;50.514;30.840;2023-09-19T01:53:35;27.40;24.40;17.00
50589;PMS7003;36547;50.514;30.840;2023-09-19T01:54:50;22.60;21.70;16.40
50589;PMS7003;36547;50.514;30.840;2023-09-19T01:55:57;21.10;21.10;15.00
50589;PMS7003;36547;50.514;30.840;2023-09-19T01:57:03;27.40;24.40;17.50
50589;PMS7003;36547;50.514;30.840;2023-09-19T01:58:34;24.80;21.60;14.60
50589;PMS7003;36547;50.514;30.840;2023-09-19T01:59:52;24.50;23.50;15.30
50589;PMS7003;36547;50.514;30.840;2023-09-19T02:00:57;24.40;21.80;17.10
50589;PMS7003;36547;50.514;30.840;2023-09-19T02:02:03;22.20;20.90;16.60
50589;PMS7003;36547;50.514;30.840;2023-09-19T02:03:10;24.20;21.00;14.80
50589;PMS7003;36547;50.514;30.840;2023-09-19T02:04:15;23.70;22.60;16.10
50589;PMS7003;36547;50.514;30.840;2023-09-19T02:05:24;22.90;21.60;15.60
50589;PMS7003;36547;50.514;30.840;2023-09-19T02:06:28;26.30;22.00;15.00
50589;PMS7003;36547;50.514;30.840;2023-09-19T02:07:30;26.30;24.50;16.40
50589;PMS7003;36547;50.514;30.840;2023-09-19T02:08:33;21.90;21.30;15.30
50589;PMS7003;36547;50.514;30.840;2023-09-19T02:09:36;23.40;23.10;17.00
50589;PMS7003;36547;50.514;30.840;2023-09-19T02:10:39;13.00;12.90;8.30
50589;PMS7003;36547;50.514;30.840;2023-09-19T02:11:42;23.73;21.64;16.36
50589;PMS7003;36547;50.514;30.840;2023-09-19T02:12:44;23.30;21.60;16.80
50589;PMS7003;36547;50.514;30.840;2023-09-19T02:13:48;23.90;21.60;15.40
50589;PMS7003;36547;50.514;30.840;2023-09-19T02:14:52;22.10;22.00;16.00
50589;PMS7003;36547;50.514;30.840;2023-09-19T02:15:55;22.00;21.36;15.64
50589;PMS7003;36547;50.514;30.840;2023-09-19T02:16:58;22.00;21.20;14.80
50589;PMS7003;36547;50.514;30.840;2023-09-19T02:18:01;19.50;19.50;14.90
50589;PMS7003;36547;50.514;30.840;2023-09-19T02:19:03;16.50;15.50;10.90
50589;PMS7003;36547;50.514;30.840;2023-09-19T02:20:06;25.10;22.90;16.00
50589;PMS7003;36547;50.514;30.840;2023-09-19T02:21:09;22.20;20.30;15.20
50589;PMS7003;36547;50.514;30.840;2023-09-19T02:22:11;23.70;22.10;15.40
50589;PMS7003;36547;50.514;30.840;2023-09-19T02:23:13;23.00;21.60;15.20
50589;PMS7003;36547;50.514;30.840;2023-09-19T02:24:16;23.80;20.50;15.60
50589;PMS7003;36547;50.514;30.840;2023-09-19T02:25:18;22.20;20.10;15.00
50589;PMS7003;36547;50.514;30.840;2023-09-19T02:26:21;22.91;21.45;16.18
50589;PMS7003;36547;50.514;30.840;2023-09-19T02:27:24;23.50;23.50;16.40
50589;PMS7003;36547;50.514;30.840;2023-09-19T02:28:26;23.60;22.60;16.10
50589;PMS7003;36547;50.514;30.840;2023-09-19T02:29:29;27.10;23.20;16.00
50589;PMS7003;36547;50.514;30.840;2023-09-19T02:30:31;23.20;21.40;15.10
50589;PMS7003;36547;50.514;30.840;2023-09-19T02:31:35;19.00;19.00;14.30
50589;PMS7003;36547;50.514;30.840;2023-09-19T02:32:38;21.20;19.60;15.30
50589;PMS7003;36547;50.514;30.840;2023-09-19T02:33:41;25.30;22.70;15.00
50589;PMS7003;36547;50.514;30.840;2023-09-19T02:34:43;21.60;20.30;14.60
50589;PMS7003;36547;50.514;30.840;2023-09-19T02:35:46;23.80;21.90;15.20
50589;PMS7003;36547;50.514;30.840;2023-09-19T02:36:49;23.18;20.45;14.36
50589;PMS7003;36547;50.514;30.840;2023-09-19T02:37:51;22.90;20.70;15.20
50589;PMS7003;36547;50.514;30.840;2023-09-19T02:38:54;22.10;21.10;15.20
50589;PMS7003;36547;50.514;30.840;2023-09-19T02:39:57;20.80;19.80;13.80
50589;PMS7003;36547;50.514;30.840;2023-09-19T02:40:59;23.50;21.20;14.30
50589;PMS7003;36547;50.514;30.840;2023-09-19T02:42:02;23.50;22.10;15.00
50589;PMS7003;36547;50.514;30.840;2023-09-19T02:43:05;21.20;20.70;14.80
50589;PMS7003;36547;50.514;30.840;2023-09-19T02:44:07;20.60;20.30;14.30
50589;PMS7003;36547;50.514;30.840;2023-09-19T02:45:10;20.80;19.00;14.50
50589;PMS7003;36547;50.514;30.840;2023-09-19T02:46:12;25.00;22.60;15.70
50589;PMS7003;36547;50.514;30.840;2023-09-19T02:47:15;24.30;23.90;17.60
50589;PMS7003;36547;50.514;30.840;2023-09-19T02:48:19;28.60;24.30;16.70
50589;PMS7003;36547;50.514;30.840;2023-09-19T02:49:22;26.90;25.20;19.30
50589;PMS7003;36547;50.514;30.840;2023-09-19T02:50:25;22.90;22.10;16.00
50589;PMS7003;36547;50.514;30.840;2023-09-19T02:51:28;25.55;22.73;16.18
50589;PMS7003;36547;50.514;30.840;2023-09-19T02:52:32;24.50;21.50;17.20
50589;PMS7003;36547;50.514;30.840;2023-09-19T02:53:35;24.09;23.09;15.82
50589;PMS7003;36547;50.514;30.840;2023-09-19T02:54:37;25.90;22.90;15.70
50589;PMS7003;36547;50.514;30.840;2023-09-19T02:55:40;22.60;20.30;14.90
50589;PMS7003;36547;50.514;30.840;2023-09-19T02:56:43;21.80;21.50;14.10
50589;PMS7003;36547;50.514;30.840;2023-09-19T02:57:46;23.91;21.00;14.55
50589;PMS7003;36547;50.514;30.840;2023-09-19T02:58:51;24.30;21.40;15.50
50589;PMS7003;36547;50.514;30.840;2023-09-19T02:59:54;24.82;23.36;16.91
50589;PMS7003;36547;50.514;30.840;2023-09-19T03:00:56;22.80;20.30;14.90
50589;PMS7003;36547;50.514;30.840;2023-09-19T03:01:59;20.00;18.90;13.90
50589;PMS7003;36547;50.514;30.840;2023-09-19T03:03:03;20.90;19.90;14.80
50589;PMS7003;36547;50.514;30.840;2023-09-19T03:04:06;24.90;22.10;15.70
50589;PMS7003;36547;50.514;30.840;2023-09-19T03:05:08;23.70;23.70;16.90
50589;PMS7003;36547;50.514;30.840;2023-09-19T03:06:11;22.90;21.00;15.20
50589;PMS7003;36547;50.514;30.840;2023-09-19T03:07:14;23.00;20.90;15.20
50589;PMS7003;36547;50.514;30.840;2023-09-19T03:08:16;23.60;22.60;15.40
50589;PMS7003;36547;50.514;30.840;2023-09-19T03:09:19;23.10;21.90;16.40
50589;PMS7003;36547;50.514;30.840;2023-09-19T03:10:22;20.80;19.90;14.20
50589;PMS7003;36547;50.514;30.840;2023-09-19T03:11:26;20.30;19.40;15.00
50589;PMS7003;36547;50.514;30.840;2023-09-19T03:12:31;24.70;21.60;15.80
50589;PMS7003;36547;50.514;30.840;2023-09-19T03:13:34;24.60;23.00;16.30
50589;PMS7003;36547;50.514;30.840;2023-09-19T03:14:37;22.50;21.80;16.10
50589;PMS7003;36547;50.514;30.840;2023-09-19T03:15:41;28.00;23.50;17.70
50589;PMS7003;36547;50.514;30.840;2023-09-19T03:16:46;26.40;23.50;16.50
50589;PMS7003;36547;50.514;30.840;2023-09-19T03:17:49;24.70;23.50;16.60
50589;PMS7003;36547;50.514;30.840;2023-09-19T03:18:53;23.10;21.80;13.80
50589;PMS7003;36547;50.514;30.840;2023-09-19T03:19:57;19.50;19.20;15.30
50589;PMS7003;36547;50.514;30.840;2023-09-19T03:21:01;21.10;20.90;14.80
50589;PMS7003;36547;50.514;30.840;2023-09-19T03:22:06;20.20;19.20;14.80
50589;PMS7003;36547;50.514;30.840;2023-09-19T03:23:08;23.00;22.50;15.60
50589;PMS7003;36547;50.514;30.840;2023-09-19T03:24:11;15.40;15.20;12.50
50589;PMS7003;36547;50.514;30.840;2023-09-19T03:25:14;22.00;21.40;14.40
50589;PMS7003;36547;50.514;30.840;2023-09-19T03:26:18;25.60;23.40;16.90
50589;PMS7003;36547;50.514;30.840;2023-09-19T03:27:20;21.90;20.40;14.90
50589;PMS7003;36547;50.514;30.840;2023-09-19T03:28:25;26.00;21.30;16.10
50589;PMS7003;36547;50.514;30.840;2023-09-19T03:29:29;23.80;22.90;16.00
50589;PMS7003;36547;50.514;30.840;2023-09-19T03:30:32;24.60;21.60;15.50
50589;PMS7003;36547;50.514;30.840;2023-09-19T03:31:36;21.50;20.70;15.50
50589;PMS7003;36547;50.514;30.840;2023-09-19T03:32:48;24.00;21.30;15.20
50589;PMS7003;36547;50.514;30.840;2023-09-19T03:33:51;23.20;21.70;14.50
50589;PMS7003;36547;50.514;30.840;2023-09-19T03:34:53;29.20;22.60;15.90
50589;PMS7003;36547;50.514;30.840;2023-09-19T03:35:56;24.18;22.55;16.45
50589;PMS7003;36547;50.514;30.840;2023-09-19T03:37:00;25.30;24.00;17.30
50589;PMS7003;36547;50.514;30.840;2023-09-19T03:38:02;23.80;23.30;15.50
50589;PMS7003;36547;50.514;30.840;2023-09-19T03:39:05;25.40;23.10;15.10
50589;PMS7003;36547;50.514;30.840;2023-09-19T03:40:09;22.20;22.00;17.40
50589;PMS7003;36547;50.514;30.840;2023-09-19T03:41:12;23.40;21.60;15.50
50589;PMS7003;36547;50.514;30.840;2023-09-19T03:42:15;19.30;17.70;15.40
50589;PMS7003;36547;50.514;30.840;2023-09-19T03:43:17;27.10;25.00;17.00
50589;PMS7003;36547;50.514;30.840;2023-09-19T03:44:20;23.60;23.00;16.90
50589;PMS7003;36547;50.514;30.840;2023-09-19T03:45:22;29.80;26.20;19.40
50589;PMS7003;36547;50.514;30.840;2023-09-19T03:46:26;24.80;24.40;17.30
50589;PMS7003;36547;50.514;30.840;2023-09-19T03:47:30;24.70;22.90;16.70
50589;PMS7003;36547;50.514;30.840;2023-09-19T03:48:33;25.20;21.90;16.30
50589;PMS7003;36547;50.514;30.840;2023-09-19T03:49:36;29.64;25.55;17.45
50589;PMS7003;36547;50.514;30.840;2023-09-19T03:50:39;23.20;22.50;17.50
50589;PMS7003;36547;50.514;30.840;2023-09-19T03:51:41;24.73;23.64;16.27
50589;PMS7003;36547;50.514;30.840;2023-09-19T03:52:44;26.90;22.50;16.00
50589;PMS7003;36547;50.514;30.840;2023-09-19T03:53:48;28.30;25.30;17.80
50589;PMS7003;36547;50.514;30.840;2023-09-19T03:54:50;26.00;25.40;18.90
50589;PMS7003;36547;50.514;30.840;2023-09-19T03:55:53;28.40;24.50;19.30
50589;PMS7003;36547;50.514;30.840;2023-09-19T03:56:57;29.60;25.30;18.80
50589;PMS7003;36547;50.514;30.840;2023-09-19T03:57:59;28.00;25.10;18.00
50589;PMS7003;36547;50.514;30.840;2023-09-19T03:59:02;23.73;22.64;16.00
50589;PMS7003;36547;50.514;30.840;2023-09-19T04:00:06;22.30;21.80;16.10
50589;PMS7003;36547;50.514;30.840;2023-09-19T04:01:11;27.50;23.00;16.20
50589;PMS7003;36547;50.514;30.840;2023-09-19T04:02:13;25.60;22.10;15.60
50589;PMS7003;36547;50.514;30.840;2023-09-19T04:03:16;24.82;22.64;14.91
50589;PMS7003;36547;50.514;30.840;2023-09-19T04:04:20;24.50;20.60;15.00
50589;PMS7003;36547;50.514;30.840;2023-09-19T04:05:23;24.20;23.30;17.00
50589;PMS7003;36547;50.514;30.840;2023-09-19T04:06:26;24.82;24.45;16.73
50589;PMS7003;36547;50.514;30.840;2023-09-19T04:07:30;22.80;21.50;14.10
50589;PMS7003;36547;50.514;30.840;2023-09-19T04:08:32;22.30;20.40;15.60
50589;PMS7003;36547;50.514;30.840;2023-09-19T04:09:34;24.00;23.90;17.10
50589;PMS7003;36547;50.514;30.840;2023-09-19T04:10:37;20.80;19.80;14.50
50589;PMS7003;36547;50.514;30.840;2023-09-19T04:11:39;21.10;19.80;14.30
50589;PMS7003;36547;50.514;30.840;2023-09-19T04:12:50;22.00;20.89;15.78
50589;PMS7003;36547;50.514;30.840;2023-09-19T04:13:54;19.40;19.40;14.70
50589;PMS7003;36547;50.514;30.840;2023-09-19T04:14:57;17.40;16.90;12.30
50589;PMS7003;36547;50.514;30.840;2023-09-19T04:16:00;23.00;21.20;16.30
50589;PMS7003;36547;50.514;30.840;2023-09-19T04:17:03;24.27;23.09;16.00
50589;PMS7003;36547;50.514;30.840;2023-09-19T04:18:06;15.80;13.20;7.50
50589;PMS7003;36547;50.514;30.840;2023-09-19T04:19:08;16.80;15.60;12.40
50589;PMS7003;36547;50.514;30.840;2023-09-19T04:20:11;24.50;22.40;16.20
50589;PMS7003;36547;50.514;30.840;2023-09-19T04:21:14;23.10;21.90;15.70
50589;PMS7003;36547;50.514;30.840;2023-09-19T04:22:17;23.30;20.70;15.70
50589;PMS7003;36547;50.514;30.840;2023-09-19T04:23:19;20.00;17.00;12.50
50589;PMS7003;36547;50.514;30.840;2023-09-19T04:24:22;22.00;22.00;15.50
50589;PMS7003;36547;50.514;30.840;2023-09-19T04:25:24;22.30;21.80;15.30
50589;PMS7003;36547;50.514;30.840;2023-09-19T04:26:27;19.60;16.00;11.90
50589;PMS7003;36547;50.514;30.840;2023-09-19T04:27:30;21.64;20.09;15.73
50589;PMS7003;36547;50.514;30.840;2023-09-19T04:28:33;23.40;20.30;15.80
50589;PMS7003;36547;50.514;30.840;2023-09-19T04:29:36;24.30;22.80;14.70
50589;PMS7003;36547;50.514;30.840;2023-09-19T04:30:39;23.60;21.70;14.40
50589;PMS7003;36547;50.514;30.840;2023-09-19T04:31:41;22.40;21.80;16.90
50589;PMS7003;36547;50.514;30.840;2023-09-19T04:32:43;21.60;21.00;15.30
50589;PMS7003;36547;50.514;30.840;2023-09-19T04:33:46;21.60;20.40;15.60
50589;PMS7003;36547;50.514;30.840;2023-09-19T04:34:48;20.44;19.44;14.11
50589;PMS7003;36547;50.514;30.840;2023-09-19T04:35:50;25.00;22.80;17.20
50589;PMS7003;36547;50.514;30.840;2023-09-19T04:36:54;20.80;18.00;13.80
50589;PMS7003;36547;50.514;30.840;2023-09-19T04:37:56;23.10;22.00;17.40
50589;PMS7003;36547;50.514;30.840;2023-09-19T04:38:59;22.30;20.00;13.80
50589;PMS7003;36547;50.514;30.840;2023-09-19T04:40:02;21.82;21.82;16.18
50589;PMS7003;36547;50.514;30.840;2023-09-19T04:41:04;24.00;23.10;16.50
50589;PMS7003;36547;50.514;30.840;2023-09-19T04:42:07;22.70;22.70;15.70
50589;PMS7003;36547;50.514;30.840;2023-09-19T04:43:09;23.80;22.00;15.40
50589;PMS7003;36547;50.514;30.840;2023-09-19T04:44:12;20.36;19.64;14.55
50589;PMS7003;36547;50.514;30.840;2023-09-19T04:45:15;23.80;22.30;16.00
50589;PMS7003;36547;50.514;30.840;2023-09-19T04:46:18;12.64;11.82;5.64
50589;PMS7003;36547;50.514;30.840;2023-09-19T04:47:20;20.80;20.80;15.10
50589;PMS7003;36547;50.514;30.840;2023-09-19T04:48:22;21.00;20.30;15.10
50589;PMS7003;36547;50.514;30.840;2023-09-19T04:49:25;21.20;19.70;13.90
50589;PMS7003;36547;50.514;30.840;2023-09-19T04:50:28;23.45;21.91;16.73
50589;PMS7003;36547;50.514;30.840;2023-09-19T04:51:30;27.70;25.80;17.10
50589;PMS7003;36547;50.514;30.840;2023-09-19T04:52:33;22.80;21.80;15.80
50589;PMS7003;36547;50.514;30.840;2023-09-19T04:53:36;24.18;23.18;16.55
50589;PMS7003;36547;50.514;30.840;2023-09-19T04:54:38;24.10;21.30;15.20
50589;PMS7003;36547;50.514;30.840;2023-09-19T04:55:41;26.60;21.20;14.60
50589;PMS7003;36547;50.514;30.840;2023-09-19T04:56:44;23.30;21.70;15.90
50589;PMS7003;36547;50.514;30.840;2023-09-19T04:57:47;18.60;16.20;10.30
50589;PMS7003;36547;50.514;30.840;2023-09-19T04:58:52;21.30;20.70;15.00
50589;PMS7003;36547;50.514;30.840;2023-09-19T04:59:55;26.00;23.10;15.50
50589;PMS7003;36547;50.514;30.840;2023-09-19T05:00:57;22.90;21.30;16.00
50589;PMS7003;36547;50.514;30.840;2023-09-19T05:02:00;27.40;25.50;16.70
50589;PMS7003;36547;50.514;30.840;2023-09-19T05:03:02;23.50;22.80;16.20
50589;PMS7003;36547;50.514;30.840;2023-09-19T05:04:05;24.45;21.36;16.45
50589;PMS7003;36547;50.514;30.840;2023-09-19T05:05:08;20.50;19.00;12.90
50589;PMS7003;36547;50.514;30.840;2023-09-19T05:06:11;23.55;23.00;15.36
50589;PMS7003;36547;50.514;30.840;2023-09-19T05:07:13;21.60;20.60;14.00
50589;PMS7003;36547;50.514;30.840;2023-09-19T05:08:16;24.10;22.30;16.70
50589;PMS7003;36547;50.514;30.840;2023-09-19T05:09:19;25.10;24.20;17.00
50589;PMS7003;36547;50.514;30.840;2023-09-19T05:10:22;23.40;23.10;15.30
50589;PMS7003;36547;50.514;30.840;2023-09-19T05:11:26;22.20;22.10;16.70
50589;PMS7003;36547;50.514;30.840;2023-09-19T05:12:28;23.40;21.60;16.10
50589;PMS7003;36547;50.514;30.840;2023-09-19T05:13:33;27.20;23.90;17.10
50589;PMS7003;36547;50.514;30.840;2023-09-19T05:23:40;22.20;20.10;14.90
50589;PMS7003;36547;50.514;30.840;2023-09-19T06:59:44;12.89;12.11;9.33
50589;PMS7003;36547;50.514;30.840;2023-09-19T07:00:46;12.10;11.70;9.00
50589;PMS7003;36547;50.514;30.840;2023-09-19T07:01:49;13.30;12.50;10.10
50589;PMS7003;36547;50.514;30.840;2023-09-19T07:02:58;13.80;12.70;9.60
50589;PMS7003;36547;50.514;30.840;2023-09-19T07:04:02;12.00;11.80;8.80
50589;PMS7003;36547;50.514;30.840;2023-09-19T07:05:04;12.27;12.27;8.82
50589;PMS7003;36547;50.514;30.840;2023-09-19T07:06:08;12.20;11.40;9.50
50589;PMS7003;36547;50.514;30.840;2023-09-19T07:07:11;12.80;11.70;9.60
50589;PMS7003;36547;50.514;30.840;2023-09-19T07:08:14;12.27;11.73;9.27
50589;PMS7003;36547;50.514;30.840;2023-09-19T07:09:16;13.90;11.20;8.50
50589;PMS7003;36547;50.514;30.840;2023-09-19T07:10:20;11.70;11.70;9.20
50589;PMS7003;36547;50.514;30.840;2023-09-19T07:11:22;11.40;10.80;9.00
50589;PMS7003;36547;50.514;30.840;2023-09-19T07:12:25;10.60;9.80;8.00
50589;PMS7003;36547;50.514;30.840;2023-09-19T07:13:28;9.10;8.30;4.30
50589;PMS7003;36547;50.514;30.840;2023-09-19T07:14:30;12.30;12.30;8.60
50589;PMS7003;36547;50.514;30.840;2023-09-19T07:15:33;10.10;8.00;6.00
50589;PMS7003;36547;50.514;30.840;2023-09-19T07:16:36;11.20;11.20;8.60
50589;PMS7003;36547;50.514;30.840;2023-09-19T07:17:38;12.30;11.80;10.00
50589;PMS7003;36547;50.514;30.840;2023-09-19T07:18:41;13.40;12.10;9.70
50589;PMS7003;36547;50.514;30.840;2023-09-19T07:19:44;14.60;12.50;10.60
50589;PMS7003;36547;50.514;30.840;2023-09-19T07:20:47;13.90;11.90;9.50
50589;PMS7003;36547;50.514;30.840;2023-09-19T07:21:49;12.90;11.70;9.00
50589;PMS7003;36547;50.514;30.840;2023-09-19T07:22:52;11.50;10.90;9.10
50589;PMS7003;36547;50.514;30.840;2023-09-19T07:23:54;15.00;13.30;10.50
50589;PMS7003;36547;50.514;30.840;2023-09-19T07:24:57;13.30;12.40;9.50
50589;PMS7003;36547;50.514;30.840;2023-09-19T07:25:59;12.90;11.30;8.90
50589;PMS7003;36547;50.514;30.840;2023-09-19T07:27:02;13.40;12.30;10.40
50589;PMS7003;36547;50.514;30.840;2023-09-19T07:28:05;13.30;12.60;9.40
50589;PMS7003;36547;50.514;30.840;2023-09-19T07:29:08;12.60;12.40;9.20
50589;PMS7003;36547;50.514;30.840;2023-09-19T07:30:11;13.80;13.00;9.20
50589;PMS7003;36547;50.514;30.840;2023-09-19T07:31:14;12.00;11.20;8.80
50589;PMS7003;36547;50.514;30.840;2023-09-19T07:32:17;13.00;12.50;9.60
50589;PMS7003;36547;50.514;30.840;2023-09-19T07:33:19;10.90;8.90;7.20
50589;PMS7003;36547;50.514;30.840;2023-09-19T07:34:22;12.18;11.00;8.91
50589;PMS7003;36547;50.514;30.840;2023-09-19T07:35:25;10.80;10.80;8.90
50589;PMS7003;36547;50.514;30.840;2023-09-19T07:36:27;11.70;11.70;9.60
50589;PMS7003;36547;50.514;30.840;2023-09-19T07:37:33;10.70;10.70;8.90
50589;PMS7003;36547;50.514;30.840;2023-09-19T07:38:35;13.30;12.40;9.60
50589;PMS7003;36547;50.514;30.840;2023-09-19T07:39:38;13.20;10.90;8.40
50589;PMS7003;36547;50.514;30.840;2023-09-19T07:40:41;13.10;12.10;10.00
50589;PMS7003;36547;50.514;30.840;2023-09-19T07:41:43;12.60;12.60;8.70
50589;PMS7003;36547;50.514;30.840;2023-09-19T07:42:46;10.60;9.90;8.10
50589;PMS7003;36547;50.514;30.840;2023-09-19T07:43:48;10.40;10.40;8.80
50589;PMS7003;36547;50.514;30.840;2023-09-19T07:44:51;11.70;11.70;9.40
50589;PMS7003;36547;50.514;30.840;2023-09-19T07:45:54;10.45;9.64;7.82
50589;PMS7003;36547;50.514;30.840;2023-09-19T07:46:56;10.20;9.50;7.20